createdAt,value
2022-10-12T00:00:35.477Z,100.00
2022-10-12T00:04:37.387Z,100.00
2022-10-12T00:08:41.157Z,100.00
2022-10-12T00:12:43.172Z,100.00
2022-10-12T00:16:45.212Z,100.00
2022-10-12T00:20:47.252Z,100.00
2022-10-12T00:24:49.298Z,100.00
2022-10-12T00:28:57.655Z,100.00
2022-10-12T00:32:59.639Z,100.00
2022-10-12T00:37:01.785Z,100.00
2022-10-12T00:41:03.767Z,100.00
2022-10-12T00:45:06.323Z,100.00
2022-10-12T00:49:27.809Z,100.00
2022-10-12T00:53:35.915Z,100.00
2022-10-12T00:57:42.011Z,100.00
2022-10-12T01:01:46.627Z,100.00
2022-10-12T01:05:49.721Z,100.00
2022-10-12T01:09:52.497Z,100.00
2022-10-12T01:13:54.596Z,100.00
2022-10-12T01:18:05.477Z,100.00
2022-10-12T01:22:11.773Z,100.00
2022-10-12T01:26:34.185Z,100.00
2022-10-12T01:30:42.006Z,100.00
2022-10-12T01:34:51.862Z,100.00
2022-10-12T01:39:03.243Z,100.00
2022-10-12T01:43:05.358Z,100.00
2022-10-12T01:47:07.367Z,100.00
2022-10-12T01:51:12.786Z,100.00
2022-10-12T01:55:44.241Z,100.00
2022-10-12T02:00:04.114Z,100.00
2022-10-12T02:04:12.807Z,100.00
2022-10-12T02:08:53.670Z,100.00
2022-10-12T02:12:58.562Z,100.00
2022-10-12T02:17:06.915Z,100.00
2022-10-12T02:21:13.067Z,100.00
2022-10-12T02:25:18.970Z,100.00
2022-10-12T02:29:26.842Z,100.00
2022-10-12T02:33:58.842Z,100.00
2022-10-12T02:38:09.399Z,100.00
2022-10-12T02:42:18.455Z,100.00
2022-10-12T02:46:24.519Z,100.00
2022-10-12T02:50:28.275Z,100.00
2022-10-12T02:54:31.093Z,100.00
2022-10-12T02:58:33.398Z,100.00
2022-10-12T03:02:35.554Z,100.00
2022-10-12T03:06:37.526Z,100.00
2022-10-12T03:10:39.503Z,100.00
2022-10-12T03:14:41.490Z,100.00
2022-10-12T03:18:44.031Z,100.00
2022-10-12T03:22:46.995Z,100.00
2022-10-12T03:26:49.201Z,100.00
2022-10-12T03:30:51.248Z,100.00
2022-10-12T03:34:53.214Z,100.00
2022-10-12T03:38:55.165Z,100.00
2022-10-12T03:42:57.190Z,100.00
2022-10-12T03:46:59.193Z,100.00
2022-10-12T03:51:01.275Z,100.00
2022-10-12T03:55:03.359Z,100.00
2022-10-12T03:59:05.641Z,100.00
2022-10-12T04:03:07.556Z,100.00
2022-10-12T04:07:09.687Z,100.00
2022-10-12T04:11:11.994Z,100.00
2022-10-12T04:15:14.702Z,100.00
2022-10-12T04:19:16.840Z,100.00
2022-10-12T04:23:18.894Z,100.00
2022-10-12T04:27:21.178Z,100.00
2022-10-12T04:31:23.154Z,100.00
2022-10-12T04:35:25.268Z,100.00
2022-10-12T04:39:27.398Z,100.00
2022-10-12T04:43:29.376Z,100.00
2022-10-12T04:47:33.326Z,100.00
2022-10-12T04:51:35.378Z,100.00
2022-10-12T04:55:37.876Z,100.00
2022-10-12T04:59:40.021Z,100.00
2022-10-12T05:03:42.318Z,100.00
2022-10-12T05:07:44.555Z,100.00
2022-10-12T05:11:46.727Z,100.00
2022-10-12T05:16:14.487Z,100.00
2022-10-12T05:20:16.817Z,100.00
2022-10-12T05:24:18.752Z,100.00
2022-10-12T05:28:20.753Z,100.00
2022-10-12T05:32:22.923Z,100.00
2022-10-12T05:36:24.939Z,100.00
2022-10-12T05:40:27.232Z,100.00
2022-10-12T05:44:29.328Z,100.00
2022-10-12T05:48:31.426Z,100.00
2022-10-12T05:52:33.446Z,100.00
2022-10-12T05:56:35.668Z,100.00
2022-10-12T06:00:38.458Z,100.00
2022-10-12T06:04:40.473Z,100.00
2022-10-12T06:08:42.976Z,100.00
2022-10-12T06:12:45.228Z,100.00
2022-10-12T06:16:51.117Z,100.00
2022-10-12T06:25:18.563Z,100.00
2022-10-12T06:29:23.433Z,100.00
2022-10-12T06:33:27.130Z,100.00
2022-10-12T06:37:49.102Z,100.00
2022-10-12T06:41:53.082Z,100.00
2022-10-12T06:45:59.876Z,100.00
2022-10-12T06:50:01.838Z,100.00
2022-10-12T06:54:03.894Z,100.00
2022-10-12T06:58:05.998Z,100.00
2022-10-12T07:02:11.268Z,100.00
2022-10-12T07:06:14.359Z,100.00
2022-10-12T07:10:16.408Z,100.00
2022-10-12T07:14:18.600Z,100.00
2022-10-12T07:18:20.898Z,100.00
2022-10-12T07:22:22.908Z,100.00
2022-10-12T07:26:24.944Z,100.00
2022-10-12T07:30:26.967Z,100.00
2022-10-12T07:34:29.487Z,100.00
2022-10-12T07:38:32.193Z,100.00
2022-10-12T07:42:34.273Z,100.00
2022-10-12T07:46:36.218Z,100.00
2022-10-12T07:50:39.947Z,100.00
2022-10-12T07:54:41.988Z,100.00
2022-10-12T07:58:52.805Z,100.00
2022-10-12T08:02:54.958Z,100.00
2022-10-12T08:06:58.176Z,100.00
2022-10-12T08:11:05.871Z,100.00
2022-10-12T08:15:08.433Z,100.00
2022-10-12T08:19:11.119Z,100.00
2022-10-12T08:23:13.066Z,100.00
2022-10-12T08:27:15.172Z,100.00
2022-10-12T08:31:17.892Z,100.00
2022-10-12T08:35:19.961Z,100.00
2022-10-12T08:39:22.093Z,100.00
2022-10-12T08:43:42.306Z,100.00
2022-10-12T08:47:51.567Z,100.00
2022-10-12T08:51:56.510Z,100.00
2022-10-12T08:55:59.203Z,100.00
2022-10-12T09:00:01.696Z,100.00
2022-10-12T09:04:17.133Z,100.00
2022-10-12T09:08:48.076Z,100.00
2022-10-12T09:13:21.106Z,100.00
2022-10-12T09:17:38.382Z,100.00
2022-10-12T09:21:42.829Z,100.00
2022-10-12T09:25:46.668Z,100.00
2022-10-12T09:29:53.037Z,100.00
2022-10-12T09:33:58.370Z,100.00
2022-10-12T09:38:01.964Z,100.00
2022-10-12T09:42:04.358Z,100.00
2022-10-12T09:46:13.445Z,100.00
2022-10-12T09:50:40.445Z,100.00
2022-10-12T09:54:52.596Z,100.00
2022-10-12T09:58:57.868Z,100.00
2022-10-12T10:03:01.194Z,100.00
2022-10-12T10:07:33.445Z,100.00
2022-10-12T10:11:36.205Z,100.00
2022-10-12T10:15:41.544Z,100.00
2022-10-12T10:19:54.156Z,99.74
2022-10-12T10:24:01.851Z,98.57
2022-10-12T10:28:31.807Z,94.88
2022-10-12T10:32:33.955Z,100.00
2022-10-12T10:36:41.031Z,99.33
2022-10-12T10:40:43.000Z,100.00
2022-10-12T10:44:59.060Z,91.71
2022-10-12T10:53:21.580Z,89.91
2022-10-12T10:57:25.191Z,97.58
2022-10-12T11:01:36.663Z,85.31
2022-10-12T11:05:45.560Z,89.32
2022-10-12T11:09:54.821Z,91.21
2022-10-12T11:14:07.411Z,86.47
2022-10-12T11:18:25.865Z,80.72
2022-10-12T11:22:40.379Z,85.48
2022-10-12T11:26:50.057Z,83.69
2022-10-12T11:30:53.304Z,86.81
2022-10-12T11:35:01.807Z,86.45
2022-10-12T11:39:08.329Z,80.23
2022-10-12T11:43:15.766Z,81.60
2022-10-12T11:47:29.898Z,83.86
2022-10-12T11:51:31.797Z,66.24
2022-10-12T11:55:39.918Z,84.34
2022-10-12T11:59:50.241Z,76.14
2022-10-12T12:03:55.173Z,80.85
2022-10-12T12:07:57.090Z,79.21
2022-10-12T12:12:17.872Z,70.06
2022-10-12T12:16:19.733Z,76.49
2022-10-12T12:21:03.652Z,58.78
2022-10-12T12:25:10.724Z,70.64
2022-10-12T12:29:29.955Z,66.84
2022-10-12T12:33:38.640Z,68.38
2022-10-12T12:37:43.795Z,72.13
2022-10-12T12:41:56.585Z,69.20
2022-10-12T12:46:02.176Z,69.50
2022-10-12T12:50:37.466Z,59.85
2022-10-12T12:55:00.480Z,58.96
2022-10-12T12:59:40.058Z,61.49
2022-10-12T13:04:02.568Z,65.05
2022-10-12T13:08:35.357Z,65.92
2022-10-12T13:13:06.657Z,58.64
2022-10-12T13:17:36.145Z,66.73
2022-10-12T13:21:45.706Z,66.10
2022-10-12T13:25:56.256Z,67.56
2022-10-12T13:30:08.931Z,63.96
2022-10-12T13:34:36.215Z,61.78
2022-10-12T13:38:39.242Z,68.13
2022-10-12T13:42:41.201Z,68.34
2022-10-12T13:47:26.376Z,61.68
2022-10-12T13:51:30.753Z,68.49
2022-10-12T13:55:32.728Z,67.81
2022-10-12T13:59:37.819Z,67.86
2022-10-12T14:03:43.368Z,68.62
2022-10-12T14:07:47.161Z,68.66
2022-10-12T14:11:51.320Z,68.86
2022-10-12T14:15:54.922Z,69.31
2022-10-12T14:20:13.780Z,68.62
2022-10-12T14:24:19.344Z,68.20
2022-10-12T14:28:35.489Z,65.77
2022-10-12T14:32:44.106Z,68.32
2022-10-12T14:36:46.094Z,70.46
2022-10-12T14:40:48.023Z,72.18
2022-10-12T14:44:50.748Z,72.72
2022-10-12T14:48:52.694Z,73.33
2022-10-12T14:53:04.705Z,73.99
2022-10-12T14:57:14.025Z,76.55
2022-10-12T15:01:16.269Z,77.33
2022-10-12T15:05:22.089Z,78.11
2022-10-12T15:09:24.030Z,79.71
2022-10-12T15:13:25.987Z,80.56
2022-10-12T15:17:28.368Z,82.41
2022-10-12T15:21:30.452Z,84.80
2022-10-12T15:25:35.503Z,86.14
2022-10-12T15:29:37.748Z,87.75
2022-10-12T15:33:43.764Z,88.42
2022-10-12T15:37:46.330Z,90.02
2022-10-12T15:41:48.371Z,91.20
2022-10-12T15:45:50.859Z,92.37
2022-10-12T15:49:52.944Z,94.85
2022-10-12T15:53:55.346Z,96.68
2022-10-12T15:57:58.516Z,98.01
2022-10-12T16:02:00.545Z,99.31
2022-10-12T16:06:02.423Z,100.00
2022-10-12T16:10:04.669Z,100.00
2022-10-12T16:14:06.853Z,100.00
2022-10-12T16:18:10.057Z,100.00
2022-10-12T16:22:12.149Z,100.00
2022-10-12T16:26:15.462Z,100.00
2022-10-12T16:30:19.025Z,100.00
2022-10-12T16:34:20.936Z,100.00
2022-10-12T16:38:22.909Z,100.00
2022-10-12T16:42:24.907Z,100.00
2022-10-12T16:46:26.842Z,100.00
2022-10-12T16:50:28.815Z,100.00
2022-10-12T16:54:30.961Z,100.00
2022-10-12T16:58:33.387Z,100.00
2022-10-12T17:02:35.631Z,100.00
2022-10-12T17:06:37.587Z,100.00
2022-10-12T17:10:44.320Z,100.00
2022-10-12T17:14:46.798Z,100.00
2022-10-12T17:18:48.859Z,100.00
2022-10-12T17:22:50.793Z,100.00
2022-10-12T17:26:53.628Z,100.00
2022-10-12T17:30:55.829Z,100.00
2022-10-12T17:34:57.835Z,100.00
2022-10-12T17:39:00.047Z,100.00
2022-10-12T17:43:02.006Z,100.00
2022-10-12T17:47:04.088Z,100.00
2022-10-12T17:51:09.794Z,100.00
2022-10-12T17:55:29.493Z,100.00
2022-10-12T17:59:33.726Z,100.00
2022-10-12T18:03:35.698Z,100.00
2022-10-12T18:07:40.726Z,100.00
2022-10-12T18:11:44.298Z,100.00
2022-10-12T18:15:46.392Z,100.00
2022-10-12T18:19:48.726Z,100.00
2022-10-12T18:23:51.399Z,100.00
2022-10-12T18:27:53.311Z,100.00
2022-10-12T18:31:55.435Z,100.00
2022-10-12T18:36:06.340Z,100.00
2022-10-12T18:40:09.177Z,100.00
2022-10-12T18:44:11.722Z,100.00
2022-10-12T18:48:13.930Z,100.00
2022-10-12T18:52:16.206Z,100.00
2022-10-12T18:56:19.425Z,100.00
2022-10-12T19:00:21.540Z,100.00
2022-10-12T19:04:23.644Z,100.00
2022-10-12T19:08:25.775Z,100.00
2022-10-12T19:12:27.714Z,100.00
2022-10-12T19:16:30.381Z,100.00
2022-10-12T19:20:35.656Z,100.00
2022-10-12T19:24:37.870Z,100.00
2022-10-12T19:28:39.904Z,100.00
2022-10-12T19:32:43.046Z,100.00
2022-10-12T19:36:45.517Z,100.00
2022-10-12T19:40:47.878Z,100.00
2022-10-12T19:44:50.680Z,100.00
2022-10-12T19:48:55.413Z,100.00
2022-10-12T19:52:57.498Z,100.00
2022-10-12T19:56:59.471Z,100.00
2022-10-12T20:01:04.369Z,100.00
2022-10-12T20:05:06.701Z,100.00
2022-10-12T20:09:09.543Z,100.00
2022-10-12T20:13:11.569Z,100.00
2022-10-12T20:17:13.676Z,100.00
2022-10-12T20:21:19.299Z,100.00
2022-10-12T20:25:21.289Z,100.00
2022-10-12T20:29:23.310Z,100.00
2022-10-12T20:33:25.247Z,100.00
2022-10-12T20:37:27.617Z,100.00
2022-10-12T20:41:29.961Z,100.00
2022-10-12T20:45:32.078Z,100.00
2022-10-12T20:49:34.061Z,100.00
2022-10-12T20:53:36.623Z,100.00
2022-10-12T20:57:38.684Z,100.00
2022-10-12T21:01:40.682Z,100.00
2022-10-12T21:05:42.916Z,100.00
2022-10-12T21:09:45.401Z,100.00
2022-10-12T21:13:47.811Z,100.00
2022-10-12T21:17:49.740Z,100.00
2022-10-12T21:21:51.974Z,100.00
2022-10-12T21:25:54.567Z,100.00
2022-10-12T21:29:56.552Z,100.00
2022-10-12T21:34:01.426Z,100.00
2022-10-12T21:38:04.153Z,100.00
2022-10-12T21:42:06.202Z,100.00
2022-10-12T21:46:11.223Z,100.00
2022-10-12T21:50:13.306Z,100.00
2022-10-12T21:54:15.379Z,100.00
2022-10-12T21:58:17.540Z,100.00
2022-10-12T22:02:20.103Z,100.00
2022-10-12T22:06:24.230Z,100.00
2022-10-12T22:10:26.270Z,100.00
2022-10-12T22:14:28.310Z,100.00
2022-10-12T22:18:38.582Z,100.00
2022-10-12T22:22:40.844Z,100.00
2022-10-12T22:26:43.147Z,100.00
2022-10-12T22:30:45.549Z,100.00
2022-10-12T22:34:47.638Z,100.00
2022-10-12T22:38:49.690Z,100.00
2022-10-12T22:42:51.841Z,100.00
2022-10-12T22:46:53.846Z,100.00
2022-10-12T22:50:56.446Z,100.00
2022-10-12T22:54:58.425Z,100.00
2022-10-12T22:59:03.205Z,100.00
2022-10-12T23:07:34.014Z,100.00
2022-10-12T23:11:35.927Z,100.00
2022-10-12T23:15:37.867Z,100.00
2022-10-12T23:19:40.281Z,100.00
2022-10-12T23:23:43.791Z,100.00
2022-10-12T23:27:46.093Z,100.00
2022-10-12T23:31:48.005Z,100.00
2022-10-12T23:35:58.011Z,100.00
2022-10-12T23:39:59.978Z,100.00
2022-10-12T23:44:01.992Z,100.00
2022-10-12T23:48:04.465Z,100.00
2022-10-12T23:52:06.849Z,100.00
2022-10-12T23:56:08.929Z,100.00
